createdAt,value
2019-01-06T00:00:12.654Z,1025.57
2019-01-06T00:01:12.637Z,1025.57
2019-01-06T00:02:12.575Z,1025.56
2019-01-06T00:03:12.532Z,1025.61
2019-01-06T00:04:12.477Z,1025.56
2019-01-06T00:05:12.437Z,1025.62
2019-01-06T00:06:12.441Z,1025.64
2019-01-06T00:07:12.350Z,1025.58
2019-01-06T00:08:12.305Z,1025.60
2019-01-06T00:09:12.266Z,1025.55
2019-01-06T00:10:12.221Z,1025.57
2019-01-06T00:11:12.179Z,1025.54
2019-01-06T00:12:12.152Z,1025.57
2019-01-06T00:13:12.081Z,1025.57
2019-01-06T00:14:12.041Z,1025.55
2019-01-06T00:15:11.996Z,1025.61
2019-01-06T00:16:11.954Z,1025.58
2019-01-06T00:17:11.916Z,1025.62
2019-01-06T00:18:11.889Z,1025.60
2019-01-06T00:19:11.816Z,1025.55
2019-01-06T00:20:11.780Z,1025.59
2019-01-06T00:21:11.738Z,1025.56
2019-01-06T00:22:11.689Z,1025.56
2019-01-06T00:23:11.647Z,1025.53
2019-01-06T00:24:11.617Z,1025.54
2019-01-06T00:25:11.554Z,1025.49
2019-01-06T00:26:11.506Z,1025.50
2019-01-06T00:27:11.489Z,1025.48
2019-01-06T00:28:11.419Z,1025.50
2019-01-06T00:29:11.383Z,1025.49
2019-01-06T00:30:11.339Z,1025.47
2019-01-06T00:31:11.291Z,1025.47
2019-01-06T00:32:11.238Z,1025.45
2019-01-06T00:33:11.219Z,1025.47
2019-01-06T00:34:11.161Z,1025.54
2019-01-06T00:35:11.110Z,1025.60
2019-01-06T00:36:11.060Z,1025.61
2019-01-06T00:37:11.022Z,1025.66
2019-01-06T00:38:10.971Z,1025.63
2019-01-06T00:39:10.955Z,1025.61
2019-01-06T00:40:10.889Z,1025.65
2019-01-06T00:41:10.849Z,1025.65
2019-01-06T00:42:10.828Z,1025.61
2019-01-06T00:43:10.756Z,1025.65
2019-01-06T00:44:10.743Z,1025.67
2019-01-06T00:45:10.663Z,1025.65
2019-01-06T00:46:10.618Z,1025.69
2019-01-06T00:47:10.574Z,1025.64
2019-01-06T00:48:10.547Z,1025.64
2019-01-06T00:49:10.494Z,1025.65
2019-01-06T00:50:10.465Z,1025.66
2019-01-06T00:51:10.398Z,1025.69
2019-01-06T00:52:10.366Z,1025.69
2019-01-06T00:53:10.313Z,1025.68
2019-01-06T00:54:10.273Z,1025.62
2019-01-06T00:55:10.245Z,1025.61
2019-01-06T00:56:10.176Z,1025.64
2019-01-06T00:57:10.130Z,1025.61
2019-01-06T00:58:10.084Z,1025.65
2019-01-06T00:59:10.043Z,1025.66
2019-01-06T01:00:10.030Z,1025.62
2019-01-06T01:01:09.956Z,1025.71
2019-01-06T01:02:09.916Z,1025.66
2019-01-06T01:03:09.869Z,1025.66
2019-01-06T01:04:09.828Z,1025.71
2019-01-06T01:05:09.798Z,1025.70
2019-01-06T01:06:09.737Z,1025.71
2019-01-06T01:07:09.698Z,1025.69
2019-01-06T01:08:09.666Z,1025.69
2019-01-06T01:09:09.593Z,1025.76
2019-01-06T01:10:09.587Z,1025.74
2019-01-06T01:11:09.507Z,1025.73
2019-01-06T01:12:09.472Z,1025.71
2019-01-06T01:13:09.429Z,1025.72
2019-01-06T01:14:09.391Z,1025.71
2019-01-06T01:15:09.341Z,1025.75
2019-01-06T01:16:09.314Z,1025.76
2019-01-06T01:17:09.251Z,1025.73
2019-01-06T01:18:09.196Z,1025.79
2019-01-06T01:19:09.149Z,1025.76
2019-01-06T01:20:09.211Z,1025.80
2019-01-06T01:21:09.074Z,1025.80
2019-01-06T01:22:09.016Z,1025.77
2019-01-06T01:23:08.980Z,1025.79
2019-01-06T01:24:08.935Z,1025.78
2019-01-06T01:25:08.920Z,1025.83
2019-01-06T01:26:08.850Z,1025.86
2019-01-06T01:27:08.801Z,1025.80
2019-01-06T01:28:08.757Z,1025.83
2019-01-06T01:29:08.714Z,1025.85
2019-01-06T01:30:08.661Z,1025.88
2019-01-06T01:31:08.646Z,1025.81
2019-01-06T01:32:08.579Z,1025.84
2019-01-06T01:33:08.549Z,1025.84
2019-01-06T01:34:08.491Z,1025.90
2019-01-06T01:35:08.442Z,1025.93
2019-01-06T01:36:08.391Z,1025.90
2019-01-06T01:37:08.379Z,1025.98
2019-01-06T01:38:08.314Z,1025.96
2019-01-06T01:39:08.263Z,1025.96
2019-01-06T01:40:08.214Z,1025.98
2019-01-06T01:41:08.172Z,1026.00
2019-01-06T01:42:08.152Z,1026.00
2019-01-06T01:43:08.082Z,1025.97
2019-01-06T01:44:08.044Z,1025.98
2019-01-06T01:45:08.002Z,1025.96
2019-01-06T01:46:07.956Z,1026.00
2019-01-06T01:47:07.934Z,1025.97
2019-01-06T01:48:07.880Z,1026.00
2019-01-06T01:49:07.814Z,1025.97
2019-01-06T01:50:07.774Z,1025.98
2019-01-06T01:51:07.728Z,1026.00
2019-01-06T01:52:07.691Z,1025.99
2019-01-06T01:53:07.676Z,1025.99
2019-01-06T01:54:07.592Z,1025.94
2019-01-06T01:55:07.549Z,1025.92
2019-01-06T01:56:07.510Z,1025.93
2019-01-06T01:57:07.466Z,1025.90
2019-01-06T01:58:07.418Z,1025.92
2019-01-06T01:59:07.403Z,1025.90
2019-01-06T02:00:07.325Z,1025.87
2019-01-06T02:01:07.284Z,1025.88
2019-01-06T02:02:07.236Z,1025.86
2019-01-06T02:03:07.196Z,1025.87
2019-01-06T02:04:07.182Z,1025.86
2019-01-06T02:05:07.186Z,1025.90
2019-01-06T02:06:07.066Z,1025.90
2019-01-06T02:07:07.024Z,1025.92
2019-01-06T02:08:06.968Z,1025.85
2019-01-06T02:09:06.956Z,1025.86
2019-01-06T02:10:06.888Z,1025.89
2019-01-06T02:11:06.844Z,1025.82
2019-01-06T02:12:06.794Z,1025.87
2019-01-06T02:13:06.751Z,1025.91
2019-01-06T02:14:06.700Z,1025.83
2019-01-06T02:15:06.681Z,1025.88
2019-01-06T02:16:06.616Z,1025.87
2019-01-06T02:17:06.580Z,1025.85
2019-01-06T02:18:06.530Z,1025.83
2019-01-06T02:19:06.513Z,1025.88
2019-01-06T02:20:06.434Z,1025.93
2019-01-06T02:21:06.391Z,1025.87
2019-01-06T02:22:06.345Z,1025.88
2019-01-06T02:23:06.299Z,1025.90
2019-01-06T02:24:06.262Z,1025.88
2019-01-06T02:25:06.245Z,1025.79
2019-01-06T02:26:06.166Z,1025.86
2019-01-06T02:27:06.121Z,1025.86
2019-01-06T02:28:06.085Z,1025.91
2019-01-06T02:29:15.169Z,1025.89
2019-01-06T02:30:06.045Z,1025.90
2019-01-06T02:31:15.193Z,1025.89
2019-01-06T02:32:15.228Z,1025.83
2019-01-06T02:33:05.858Z,1025.88
2019-01-06T02:34:05.812Z,1025.92
2019-01-06T02:35:05.800Z,1025.89
2019-01-06T02:36:05.731Z,1025.90
2019-01-06T02:37:05.706Z,1025.89
2019-01-06T02:38:14.771Z,1025.93
2019-01-06T02:39:14.807Z,1025.92
2019-01-06T02:40:05.553Z,1025.92
2019-01-06T02:41:14.341Z,1025.94
2019-01-06T02:42:14.848Z,1025.93
2019-01-06T02:43:05.408Z,1025.94
2019-01-06T02:45:44.635Z,1025.91
2019-01-06T02:46:44.578Z,1025.89
2019-01-06T02:47:44.515Z,1025.92
2019-01-06T02:48:44.474Z,1025.92
2019-01-06T02:49:44.429Z,1025.94
2019-01-06T02:50:44.374Z,1025.90
2019-01-06T02:51:44.365Z,1025.95
2019-01-06T02:52:44.289Z,1025.90
2019-01-06T02:53:44.242Z,1025.88
2019-01-06T02:54:44.198Z,1025.87
2019-01-06T02:55:44.148Z,1025.85
2019-01-06T02:56:44.104Z,1025.88
2019-01-06T02:57:44.085Z,1025.86
2019-01-06T02:58:44.025Z,1025.89
2019-01-06T02:59:43.983Z,1025.90
2019-01-06T03:00:43.936Z,1025.90
2019-01-06T03:01:43.906Z,1025.89
2019-01-06T03:02:43.841Z,1025.89
2019-01-06T03:03:43.816Z,1025.89
2019-01-06T03:04:43.745Z,1025.91
2019-01-06T03:05:43.707Z,1025.83
2019-01-06T03:06:43.665Z,1025.87
2019-01-06T03:07:43.609Z,1025.86
2019-01-06T03:08:43.572Z,1025.90
2019-01-06T03:09:43.556Z,1025.84
2019-01-06T03:10:43.484Z,1025.86
2019-01-06T03:11:43.441Z,1025.88
2019-01-06T03:12:43.394Z,1025.83
2019-01-06T03:13:52.830Z,1025.85
2019-01-06T03:14:43.299Z,1025.85
2019-01-06T03:15:43.289Z,1025.89
2019-01-06T03:16:43.214Z,1025.87
2019-01-06T03:17:43.171Z,1025.90
2019-01-06T03:18:43.127Z,1025.87
2019-01-06T03:19:43.080Z,1025.87
2019-01-06T03:20:43.055Z,1025.89
2019-01-06T03:21:42.994Z,1025.89
2019-01-06T03:22:42.975Z,1025.85
2019-01-06T03:23:42.895Z,1025.86
2019-01-06T03:24:42.852Z,1025.87
2019-01-06T03:25:42.809Z,1025.86
2019-01-06T03:26:42.763Z,1025.89
2019-01-06T03:27:42.746Z,1025.86
2019-01-06T03:28:42.684Z,1025.86
2019-01-06T03:29:42.637Z,1025.86
2019-01-06T03:30:42.593Z,1025.83
2019-01-06T03:31:42.566Z,1025.79
2019-01-06T03:32:42.497Z,1025.81
2019-01-06T03:33:42.475Z,1025.78
2019-01-06T03:34:42.406Z,1025.80
2019-01-06T03:35:42.375Z,1025.74
2019-01-06T03:36:42.320Z,1025.75
2019-01-06T03:37:42.295Z,1025.74
2019-01-06T03:38:42.249Z,1025.71
2019-01-06T03:39:42.192Z,1025.66
2019-01-06T03:40:42.145Z,1025.69
2019-01-06T03:41:42.099Z,1025.70
2019-01-06T03:42:42.057Z,1025.65
2019-01-06T03:43:42.033Z,1025.65
2019-01-06T03:44:41.960Z,1025.66
2019-01-06T03:45:41.916Z,1025.68
2019-01-06T03:46:41.869Z,1025.64
2019-01-06T03:47:41.835Z,1025.63
2019-01-06T03:48:41.790Z,1025.60
2019-01-06T03:49:41.765Z,1025.59
2019-01-06T03:50:41.707Z,1025.56
2019-01-06T03:51:41.651Z,1025.56
2019-01-06T03:52:41.603Z,1025.56
2019-01-06T03:53:41.587Z,1025.63
2019-01-06T03:54:41.525Z,1025.57
2019-01-06T03:55:41.495Z,1025.55
2019-01-06T03:56:41.428Z,1025.59
2019-01-06T03:57:41.381Z,1025.58
2019-01-06T03:58:41.336Z,1025.53
2019-01-06T03:59:41.296Z,1025.55
2019-01-06T04:00:41.254Z,1025.53
2019-01-06T04:01:41.237Z,1025.49
2019-01-06T04:02:41.167Z,1025.51
2019-01-06T04:03:41.116Z,1025.49
2019-01-06T04:04:41.067Z,1025.51
2019-01-06T04:05:41.029Z,1025.49
2019-01-06T04:06:41.005Z,1025.50
2019-01-06T04:07:40.947Z,1025.53
2019-01-06T04:08:40.912Z,1025.47
2019-01-06T04:09:40.849Z,1025.47
2019-01-06T04:10:40.800Z,1025.48
2019-01-06T04:11:40.793Z,1025.48
2019-01-06T04:12:40.721Z,1025.48
2019-01-06T04:13:40.675Z,1025.40
2019-01-06T04:14:40.707Z,1025.49
2019-01-06T04:15:40.583Z,1025.41
2019-01-06T04:16:40.535Z,1025.44
2019-01-06T04:17:40.512Z,1025.44
2019-01-06T04:18:40.445Z,1025.47
2019-01-06T04:19:40.407Z,1025.41
2019-01-06T04:20:40.368Z,1025.44
2019-01-06T04:21:40.349Z,1025.46
2019-01-06T04:22:40.274Z,1025.45
2019-01-06T04:23:40.224Z,1025.43
2019-01-06T04:24:40.182Z,1025.44
2019-01-06T04:25:40.141Z,1025.44
2019-01-06T04:26:40.095Z,1025.41
2019-01-06T04:27:40.072Z,1025.43
2019-01-06T04:28:40.007Z,1025.42
2019-01-06T04:29:39.962Z,1025.43
2019-01-06T04:30:39.912Z,1025.41
2019-01-06T04:31:39.876Z,1025.50
2019-01-06T04:32:39.829Z,1025.45
2019-01-06T04:33:39.812Z,1025.44
2019-01-06T04:34:39.744Z,1025.40
2019-01-06T04:35:39.692Z,1025.43
2019-01-06T04:36:39.646Z,1025.35
2019-01-06T04:37:39.603Z,1025.41
2019-01-06T04:38:39.578Z,1025.40
2019-01-06T04:39:39.527Z,1025.41
2019-01-06T04:40:39.473Z,1025.39
2019-01-06T04:41:39.448Z,1025.33
2019-01-06T04:42:39.381Z,1025.37
2019-01-06T04:43:48.873Z,1025.31
2019-01-06T04:44:39.299Z,1025.36
2019-01-06T04:45:39.256Z,1025.31
2019-01-06T04:46:39.212Z,1025.33
2019-01-06T04:47:39.158Z,1025.32
2019-01-06T04:48:39.135Z,1025.36
2019-01-06T04:49:39.096Z,1025.32
2019-01-06T04:50:39.032Z,1025.32
2019-01-06T04:51:38.985Z,1025.31
2019-01-06T04:52:38.964Z,1025.31
2019-01-06T04:53:38.888Z,1025.31
2019-01-06T04:54:38.871Z,1025.29
2019-01-06T04:55:38.807Z,1025.28
2019-01-06T04:56:38.762Z,1025.25
2019-01-06T04:57:38.713Z,1025.30
2019-01-06T04:58:38.670Z,1025.27
2019-01-06T04:59:38.625Z,1025.25
2019-01-06T05:00:38.607Z,1025.32
2019-01-06T05:01:38.543Z,1025.31
2019-01-06T05:02:38.496Z,1025.28
2019-01-06T05:03:38.456Z,1025.30
2019-01-06T05:04:38.411Z,1025.26
2019-01-06T05:05:38.358Z,1025.34
2019-01-06T05:06:38.337Z,1025.28
2019-01-06T05:07:38.289Z,1025.32
2019-01-06T05:08:38.245Z,1025.35
2019-01-06T05:09:38.184Z,1025.31
2019-01-06T05:10:38.139Z,1025.34
2019-01-06T05:11:38.090Z,1025.32
2019-01-06T05:12:38.073Z,1025.31
2019-01-06T05:13:38.006Z,1025.34
2019-01-06T05:14:37.965Z,1025.30
2019-01-06T05:15:37.917Z,1025.29
2019-01-06T05:16:37.872Z,1025.29
2019-01-06T05:17:37.844Z,1025.35
2019-01-06T05:18:37.775Z,1025.33
2019-01-06T05:19:37.738Z,1025.29
2019-01-06T05:20:37.685Z,1025.35
2019-01-06T05:21:37.650Z,1025.33
2019-01-06T05:22:37.637Z,1025.35
2019-01-06T05:23:37.562Z,1025.34
2019-01-06T05:24:37.515Z,1025.32
2019-01-06T05:25:37.465Z,1025.33
2019-01-06T05:26:37.420Z,1025.33
2019-01-06T05:27:37.406Z,1025.33
2019-01-06T05:28:37.338Z,1025.28
2019-01-06T05:29:37.290Z,1025.28
2019-01-06T05:30:37.242Z,1025.28
2019-01-06T05:31:37.199Z,1025.32
2019-01-06T05:32:37.180Z,1025.30
2019-01-06T05:33:37.123Z,1025.32
2019-01-06T05:34:37.075Z,1025.30
2019-01-06T05:35:37.030Z,1025.37
2019-01-06T05:36:36.981Z,1025.32
2019-01-06T05:37:36.932Z,1025.38
2019-01-06T05:38:36.912Z,1025.38
2019-01-06T05:39:36.844Z,1025.39
2019-01-06T05:40:36.797Z,1025.37
2019-01-06T05:41:36.760Z,1025.37
2019-01-06T05:42:36.718Z,1025.39
2019-01-06T05:43:36.691Z,1025.39
2019-01-06T05:44:36.620Z,1025.46
2019-01-06T05:45:36.584Z,1025.48
2019-01-06T05:46:36.540Z,1025.43
2019-01-06T05:47:36.493Z,1025.48
2019-01-06T05:48:36.449Z,1025.44
2019-01-06T05:49:36.423Z,1025.48
2019-01-06T05:50:36.353Z,1025.48
2019-01-06T05:51:36.312Z,1025.50
2019-01-06T05:52:36.264Z,1025.48
2019-01-06T05:53:36.228Z,1025.58
2019-01-06T05:54:36.183Z,1025.51
2019-01-06T05:55:36.167Z,1025.55
2019-01-06T05:56:36.092Z,1025.57
2019-01-06T05:57:36.042Z,1025.54
2019-01-06T05:58:35.998Z,1025.56
2019-01-06T05:59:35.958Z,1025.51
2019-01-06T06:00:35.918Z,1025.57
2019-01-06T06:01:35.892Z,1025.55
2019-01-06T06:02:35.820Z,1025.55
2019-01-06T06:03:35.778Z,1025.59
2019-01-06T06:04:35.734Z,1025.61
2019-01-06T06:05:35.694Z,1025.59
2019-01-06T06:06:35.647Z,1025.63
2019-01-06T06:07:35.641Z,1025.64
2019-01-06T06:08:35.559Z,1025.66
2019-01-06T06:09:35.512Z,1025.69
2019-01-06T06:10:35.463Z,1025.67
2019-01-06T06:11:35.444Z,1025.68
2019-01-06T06:12:35.376Z,1025.70
2019-01-06T06:13:35.365Z,1025.72
2019-01-06T06:14:35.292Z,1025.72
2019-01-06T06:15:35.267Z,1025.74
2019-01-06T06:16:35.197Z,1025.68
2019-01-06T06:17:35.166Z,1025.72
2019-01-06T06:18:35.115Z,1025.76
2019-01-06T06:19:35.094Z,1025.77
2019-01-06T06:20:35.027Z,1025.75
2019-01-06T06:21:34.980Z,1025.78
2019-01-06T06:22:34.931Z,1025.79
2019-01-06T06:23:34.891Z,1025.75
2019-01-06T06:24:34.868Z,1025.73
2019-01-06T06:25:34.805Z,1025.80
2019-01-06T06:26:34.788Z,1025.80
2019-01-06T06:27:34.718Z,1025.84
2019-01-06T06:28:34.672Z,1025.80
2019-01-06T06:29:34.625Z,1025.85
2019-01-06T06:30:34.575Z,1025.81
2019-01-06T06:31:34.537Z,1025.87
2019-01-06T06:32:34.519Z,1025.86
2019-01-06T06:33:34.446Z,1025.86
2019-01-06T06:34:34.404Z,1025.85
2019-01-06T06:35:34.358Z,1025.87
2019-01-06T06:36:34.336Z,1025.86
2019-01-06T06:37:34.272Z,1025.85
2019-01-06T06:38:34.230Z,1025.85
2019-01-06T06:39:34.184Z,1025.86
2019-01-06T06:40:34.138Z,1025.85
2019-01-06T06:41:34.091Z,1025.85
2019-01-06T06:42:34.072Z,1025.86
2019-01-06T06:43:34.002Z,1025.87
2019-01-06T06:44:33.952Z,1025.93
2019-01-06T06:45:33.917Z,1025.86
2019-01-06T06:46:33.871Z,1025.90
2019-01-06T06:47:33.842Z,1025.88
2019-01-06T06:48:33.776Z,1025.89
2019-01-06T06:49:33.737Z,1025.92
2019-01-06T06:50:33.692Z,1025.96
2019-01-06T06:51:33.649Z,1025.93
2019-01-06T06:52:33.629Z,1025.96
2019-01-06T06:53:33.558Z,1025.95
2019-01-06T06:54:33.508Z,1025.98
2019-01-06T06:55:33.489Z,1025.94
2019-01-06T06:56:33.427Z,1025.99
2019-01-06T06:57:33.413Z,1025.96
2019-01-06T06:58:33.338Z,1026.00
2019-01-06T06:59:33.295Z,1026.02
2019-01-06T07:00:33.251Z,1026.03
2019-01-06T07:01:33.202Z,1026.07
2019-01-06T07:02:33.155Z,1026.06
2019-01-06T07:03:33.143Z,1026.08
2019-01-06T07:04:33.071Z,1026.09
2019-01-06T07:05:33.026Z,1026.09
2019-01-06T07:06:32.981Z,1026.10
2019-01-06T07:07:32.937Z,1026.09
2019-01-06T07:08:32.943Z,1026.11
2019-01-06T07:09:32.857Z,1026.12
2019-01-06T07:10:32.806Z,1026.12
2019-01-06T07:11:32.761Z,1026.13
2019-01-06T07:12:32.720Z,1026.13
2019-01-06T07:13:32.667Z,1026.18
2019-01-06T07:14:32.648Z,1026.13
2019-01-06T07:15:32.581Z,1026.18
2019-01-06T07:16:32.533Z,1026.20
2019-01-06T07:17:32.495Z,1026.23
2019-01-06T07:18:32.460Z,1026.24
2019-01-06T07:19:32.445Z,1026.23
2019-01-06T07:20:32.357Z,1026.25
2019-01-06T07:21:32.357Z,1026.32
2019-01-06T07:22:32.276Z,1026.32
2019-01-06T07:23:32.232Z,1026.31
2019-01-06T07:24:32.191Z,1026.35
2019-01-06T07:25:32.165Z,1026.36
2019-01-06T07:26:32.096Z,1026.32
2019-01-06T07:27:32.050Z,1026.37
2019-01-06T07:28:32.000Z,1026.35
2019-01-06T07:29:31.963Z,1026.38
2019-01-06T07:30:31.944Z,1026.40
2019-01-06T07:31:31.873Z,1026.41
2019-01-06T07:32:31.829Z,1026.42
2019-01-06T07:33:31.775Z,1026.42
2019-01-06T07:34:31.734Z,1026.42
2019-01-06T07:35:31.696Z,1026.45
2019-01-06T07:36:31.675Z,1026.45
2019-01-06T07:37:31.605Z,1026.44
2019-01-06T07:38:31.563Z,1026.47
2019-01-06T07:39:31.517Z,1026.43
2019-01-06T07:40:31.466Z,1026.45
2019-01-06T07:41:31.429Z,1026.50
2019-01-06T07:42:31.408Z,1026.49
2019-01-06T07:43:31.341Z,1026.50
2019-01-06T07:44:31.296Z,1026.49
2019-01-06T07:45:31.254Z,1026.53
2019-01-06T07:46:31.199Z,1026.50
2019-01-06T07:47:31.253Z,1026.54
2019-01-06T07:48:31.108Z,1026.53
2019-01-06T07:49:31.077Z,1026.54
2019-01-06T07:50:31.029Z,1026.55
2019-01-06T07:51:30.983Z,1026.57
2019-01-06T07:52:30.958Z,1026.53
2019-01-06T07:53:30.901Z,1026.59
2019-01-06T07:54:30.851Z,1026.57
2019-01-06T07:55:30.809Z,1026.61
2019-01-06T07:56:30.766Z,1026.59
2019-01-06T07:57:30.719Z,1026.59
2019-01-06T07:58:30.695Z,1026.56
2019-01-06T07:59:30.626Z,1026.59
2019-01-06T08:00:30.578Z,1026.58
2019-01-06T08:01:30.542Z,1026.59
2019-01-06T08:02:31.260Z,1026.64
2019-01-06T08:03:30.455Z,1026.61
2019-01-06T08:04:30.408Z,1026.64
2019-01-06T08:05:30.364Z,1026.65
2019-01-06T08:06:30.317Z,1026.68
2019-01-06T08:07:30.276Z,1026.65
2019-01-06T08:08:30.261Z,1026.63
2019-01-06T08:09:30.182Z,1026.63
2019-01-06T08:10:30.134Z,1026.69
2019-01-06T08:11:30.098Z,1026.66
2019-01-06T08:12:30.048Z,1026.63
2019-01-06T08:13:30.008Z,1026.65
2019-01-06T08:14:30.009Z,1026.75
2019-01-06T08:15:29.918Z,1026.80
2019-01-06T08:16:29.875Z,1026.77
2019-01-06T08:17:29.844Z,1026.77
2019-01-06T08:18:29.780Z,1026.79
2019-01-06T08:19:29.756Z,1026.79
2019-01-06T08:20:29.690Z,1026.75
2019-01-06T08:21:29.654Z,1026.74
2019-01-06T08:22:29.639Z,1026.78
2019-01-06T08:23:29.562Z,1026.81
2019-01-06T08:24:29.545Z,1026.77
2019-01-06T08:25:29.476Z,1026.80
2019-01-06T08:26:29.431Z,1026.83
2019-01-06T08:27:29.388Z,1026.81
2019-01-06T08:28:29.339Z,1026.86
2019-01-06T08:29:29.298Z,1026.83
2019-01-06T08:30:29.287Z,1026.87
2019-01-06T08:31:29.234Z,1026.90
2019-01-06T08:32:29.168Z,1026.91
2019-01-06T08:33:29.129Z,1026.92
2019-01-06T08:34:29.076Z,1026.93
2019-01-06T08:35:29.061Z,1026.95
2019-01-06T08:36:29.003Z,1026.94
2019-01-06T08:37:28.949Z,1026.95
2019-01-06T08:38:28.909Z,1026.94
2019-01-06T08:39:28.858Z,1026.97
2019-01-06T08:40:28.856Z,1026.95
2019-01-06T08:41:28.806Z,1026.92
2019-01-06T08:42:28.741Z,1026.98
2019-01-06T08:43:28.713Z,1026.92
2019-01-06T08:44:28.755Z,1027.00
2019-01-06T08:45:28.669Z,1026.94
2019-01-06T08:46:28.564Z,1026.95
2019-01-06T08:47:28.536Z,1026.94
2019-01-06T08:48:28.510Z,1026.99
2019-01-06T08:49:28.508Z,1026.92
2019-01-06T08:50:28.382Z,1026.95
2019-01-06T08:51:28.390Z,1026.96
2019-01-06T08:52:28.303Z,1026.96
2019-01-06T08:53:28.260Z,1026.96
2019-01-06T08:54:28.206Z,1026.93
2019-01-06T08:55:28.172Z,1026.98
2019-01-06T08:56:28.134Z,1026.97
2019-01-06T08:57:28.090Z,1026.97
2019-01-06T08:58:28.031Z,1026.88
2019-01-06T08:59:28.018Z,1026.94
2019-01-06T09:00:27.934Z,1026.94
2019-01-06T09:01:27.980Z,1026.94
2019-01-06T09:02:27.855Z,1026.94
2019-01-06T09:03:27.814Z,1026.96
2019-01-06T09:04:27.785Z,1026.96
2019-01-06T09:05:27.709Z,1026.95
2019-01-06T09:06:27.677Z,1026.97
2019-01-06T09:07:36.455Z,1026.94
2019-01-06T09:08:27.636Z,1026.96
2019-01-06T09:09:27.549Z,1026.96
2019-01-06T09:10:27.487Z,1026.97
2019-01-06T09:11:27.452Z,1026.98
2019-01-06T09:12:27.410Z,1026.96
2019-01-06T09:13:27.370Z,1026.97
2019-01-06T09:14:27.345Z,1026.97
2019-01-06T09:15:27.273Z,1026.95
2019-01-06T09:16:27.225Z,1026.96
2019-01-06T09:17:27.211Z,1026.98
2019-01-06T09:18:27.231Z,1027.01
2019-01-06T09:19:27.099Z,1026.99
2019-01-06T09:20:27.094Z,1026.99
2019-01-06T09:21:27.008Z,1027.01
2019-01-06T09:22:26.957Z,1027.01
2019-01-06T09:23:26.914Z,1027.02
2019-01-06T09:24:26.897Z,1027.06
2019-01-06T09:25:26.957Z,1027.09
2019-01-06T09:26:26.905Z,1027.07
2019-01-06T09:27:26.772Z,1027.07
2019-01-06T09:28:26.710Z,1027.10
2019-01-06T09:29:26.719Z,1027.14
2019-01-06T09:30:26.634Z,1027.09
2019-01-06T09:31:26.620Z,1027.12
2019-01-06T09:32:26.530Z,1027.11
2019-01-06T09:33:26.493Z,1027.13
2019-01-06T09:34:26.456Z,1027.18
2019-01-06T09:35:26.391Z,1027.17
2019-01-06T09:36:26.389Z,1027.20
2019-01-06T09:37:26.303Z,1027.16
2019-01-06T09:38:26.274Z,1027.22
2019-01-06T09:39:26.231Z,1027.20
2019-01-06T09:40:27.171Z,1027.22
2019-01-06T09:41:26.201Z,1027.23
2019-01-06T09:42:26.083Z,1027.24
2019-01-06T09:43:26.045Z,1027.19
2019-01-06T09:44:26.006Z,1027.24
2019-01-06T09:45:25.962Z,1027.27
2019-01-06T09:46:25.954Z,1027.20
2019-01-06T09:47:25.864Z,1027.23
2019-01-06T09:48:25.817Z,1027.26
2019-01-06T09:49:25.781Z,1027.24
2019-01-06T09:50:25.729Z,1027.25
2019-01-06T09:51:25.701Z,1027.21
2019-01-06T09:52:25.706Z,1027.22
2019-01-06T09:53:25.617Z,1027.21
2019-01-06T09:54:25.569Z,1027.25
2019-01-06T09:55:25.515Z,1027.21
2019-01-06T09:56:25.482Z,1027.22
2019-01-06T09:57:25.461Z,1027.26
2019-01-06T09:58:25.414Z,1027.25
2019-01-06T09:59:25.340Z,1027.27
2019-01-06T10:00:25.306Z,1027.25
2019-01-06T10:01:25.245Z,1027.23
2019-01-06T10:02:25.254Z,1027.25
2019-01-06T10:03:25.194Z,1027.24
2019-01-06T10:04:25.132Z,1027.26
2019-01-06T10:05:25.066Z,1027.28
2019-01-06T10:06:25.023Z,1027.26
2019-01-06T10:07:25.000Z,1027.28
2019-01-06T10:08:24.983Z,1027.26
2019-01-06T10:09:24.889Z,1027.28
2019-01-06T10:10:24.883Z,1027.30
2019-01-06T10:11:24.833Z,1027.31
2019-01-06T10:12:24.783Z,1027.28
2019-01-06T10:13:24.763Z,1027.28
2019-01-06T10:14:24.680Z,1027.31
2019-01-06T10:15:24.641Z,1027.33
2019-01-06T10:16:24.609Z,1027.34
2019-01-06T10:17:24.564Z,1027.34
2019-01-06T10:18:24.538Z,1027.31
2019-01-06T10:19:24.460Z,1027.34
2019-01-06T10:20:24.430Z,1027.36
2019-01-06T10:21:24.375Z,1027.34
2019-01-06T10:22:24.311Z,1027.35
2019-01-06T10:23:24.344Z,1027.34
2019-01-06T10:24:24.250Z,1027.33
2019-01-06T10:25:24.196Z,1027.34
2019-01-06T10:26:24.195Z,1027.35
2019-01-06T10:27:24.101Z,1027.38
2019-01-06T10:28:24.070Z,1027.32
2019-01-06T10:29:24.073Z,1027.28
2019-01-06T10:30:23.977Z,1027.28
2019-01-06T10:31:23.959Z,1027.26
2019-01-06T10:32:23.875Z,1027.29
2019-01-06T10:33:23.855Z,1027.26
2019-01-06T10:34:23.814Z,1027.30
2019-01-06T10:35:23.797Z,1027.28
2019-01-06T10:36:23.728Z,1027.25
2019-01-06T10:37:23.708Z,1027.30
2019-01-06T10:38:23.655Z,1027.27
2019-01-06T10:39:23.624Z,1027.27
2019-01-06T10:40:23.574Z,1027.27
2019-01-06T10:41:23.513Z,1027.30
2019-01-06T10:42:23.463Z,1027.30
2019-01-06T10:43:23.443Z,1027.30
2019-01-06T10:44:23.368Z,1027.31
2019-01-06T10:45:24.296Z,1027.31
2019-01-06T10:46:23.299Z,1027.29
2019-01-06T10:47:23.263Z,1027.35
2019-01-06T10:48:23.193Z,1027.31
2019-01-06T10:49:23.149Z,1027.31
2019-01-06T10:50:23.136Z,1027.26
2019-01-06T10:51:23.072Z,1027.31
2019-01-06T10:52:23.088Z,1027.34
2019-01-06T10:53:22.990Z,1027.30
2019-01-06T10:54:22.934Z,1027.35
2019-01-06T10:55:22.924Z,1027.33
2019-01-06T10:56:22.841Z,1027.33
2019-01-06T10:57:22.804Z,1027.35
2019-01-06T10:58:22.767Z,1027.36
2019-01-06T10:59:22.718Z,1027.34
2019-01-06T11:00:22.685Z,1027.35
2019-01-06T11:01:22.640Z,1027.36
2019-01-06T11:02:22.592Z,1027.36
2019-01-06T11:03:22.577Z,1027.35
2019-01-06T11:04:22.498Z,1027.32
2019-01-06T11:05:22.454Z,1027.33
2019-01-06T11:06:22.472Z,1027.36
2019-01-06T11:07:22.379Z,1027.38
2019-01-06T11:08:22.340Z,1027.32
2019-01-06T11:09:22.306Z,1027.37
2019-01-06T11:10:22.245Z,1027.33
2019-01-06T11:11:22.229Z,1027.40
2019-01-06T11:12:22.136Z,1027.36
2019-01-06T11:13:22.115Z,1027.33
2019-01-06T11:14:22.086Z,1027.35
2019-01-06T11:15:22.025Z,1027.30
2019-01-06T11:16:22.000Z,1027.35
2019-01-06T11:17:21.967Z,1027.31
2019-01-06T11:18:21.879Z,1027.36
2019-01-06T11:19:21.841Z,1027.32
2019-01-06T11:20:21.830Z,1027.35
2019-01-06T11:21:21.751Z,1027.40
2019-01-06T11:22:21.759Z,1027.47
2019-01-06T11:23:21.667Z,1027.44
2019-01-06T11:24:21.632Z,1027.45
2019-01-06T11:25:21.614Z,1027.48
2019-01-06T11:26:21.561Z,1027.44
2019-01-06T11:27:21.571Z,1027.46
2019-01-06T11:28:21.474Z,1027.48
2019-01-06T11:29:21.427Z,1027.43
2019-01-06T11:30:21.359Z,1027.44
2019-01-06T11:31:21.354Z,1027.45
2019-01-06T11:32:21.283Z,1027.44
2019-01-06T11:33:21.258Z,1027.48
2019-01-06T11:34:21.192Z,1027.43
2019-01-06T11:35:21.150Z,1027.46
2019-01-06T11:36:21.087Z,1027.47
2019-01-06T11:37:21.056Z,1027.43
2019-01-06T11:38:21.026Z,1027.43
2019-01-06T11:39:20.999Z,1027.44
2019-01-06T11:40:20.923Z,1027.41
2019-01-06T11:41:20.891Z,1027.42
2019-01-06T11:42:20.844Z,1027.39
2019-01-06T11:43:20.791Z,1027.40
2019-01-06T11:44:20.768Z,1027.41
2019-01-06T11:45:20.713Z,1027.38
2019-01-06T11:46:20.662Z,1027.34
2019-01-06T11:47:20.613Z,1027.36
2019-01-06T11:48:20.643Z,1027.33
2019-01-06T11:49:20.530Z,1027.33
2019-01-06T11:50:20.475Z,1027.32
2019-01-06T11:51:20.443Z,1027.31
2019-01-06T11:52:20.394Z,1027.34
2019-01-06T11:53:20.361Z,1027.32
2019-01-06T11:54:20.301Z,1027.30
2019-01-06T11:55:20.289Z,1027.29
2019-01-06T11:56:20.241Z,1027.30
2019-01-06T11:57:20.166Z,1027.35
2019-01-06T11:58:20.158Z,1027.33
2019-01-06T11:59:20.116Z,1027.30
2019-01-06T12:00:20.052Z,1027.32
2019-01-06T12:01:20.033Z,1027.24
2019-01-06T12:02:19.971Z,1027.25
2019-01-06T12:03:19.921Z,1027.27
2019-01-06T12:04:19.870Z,1027.26
2019-01-06T12:05:19.840Z,1027.32
2019-01-06T12:06:19.800Z,1027.25